METAR Data
IDs: Format: Raw Decoded Include TAF

Data at: 1900 UTC 26 Oct 2021

KEFD 261850Z 13013G18KT 10SM FEW028 SCT033 BKN048 28/23 A2985
KEFD 261750Z 15011KT 10SM BKN022 BKN037 28/23 A2989
KEFD 261650Z 12009KT 10SM BKN021 BKN040 28/24 A2992
KEFD 261550Z 13010KT 10SM SCT013 BKN036 28/24 A2994
KEFD 261450Z 13007KT 10SM FEW010 BKN050 26/24 A2995
KEFD 261350Z 13003KT 10SM FEW010 SCT040 24/23 A2994
KEFD 261250Z 00000KT 9SM FEW010 SCT035 22/22 A2993
KEFD 261150Z 09003KT 7SM MIFG FEW005 SCT025 21/21 A2992
KEFD 261050Z 00000KT 6SM BR MIFG BKN004 22/22 A2992
KEFD 260950Z 00000KT 3SM FG BKN004 22/22 A2992
KEFD 260750Z 00000KT 1/2SM FG BKN004 22/22 A2993
KEFD 260650Z 00000KT 10SM FEW021 23/23 A2994
KEFD 260450Z 17004KT 10SM FEW040 24/23 A2995
KEFD 260350Z 17004KT 10SM FEW040 24/23 A2996
KEFD 260250Z 17004KT 10SM FEW040 24/23 A2996
KEFD 260150Z 15003KT 10SM FEW040 25/23 A2995
KEFD 260050Z 16006KT 10SM FEW040 25/23 A2994
KEFD 252350Z 16007KT 10SM FEW040 27/23 A2992
KEFD 252250Z 13007KT 10SM SCT040 29/23 A2990
KEFD 252150Z 12010KT 10SM SCT040 31/23 A2990
KEFD 252050Z 00000KT 10SM SCT040 33/20 A2990
KEFD 251950Z 26004KT 10SM SCT040 32/22 A2991
KEFD 251850Z 00000KT 10SM SCT040 31/22 A2993
KEFD 251750Z 16005KT 10SM SCT025 31/22 A2996
KEFD 251650Z 23005KT 9SM SCT025 29/23 A2997
KEFD 251550Z 25005KT 9SM SCT027 28/24 A2998
KEFD 251528Z 27004KT 9SM FEW009 BKN024 26/24 A2998
KEFD 251450Z 00000KT 6SM BR BKN006 BKN010 27/25 A2998
KEFD 251420Z 00000KT 4SM BR OVC004 24/24 A2998
KEFD 251350Z 00000KT 1SM BR OVC003 24/24 A2997
KEFD 251250Z 00000KT 1/4SM FG OVC003 24/23 A2995
KEFD 251150Z 00000KT 1/4SM FG VV002 23/23 A2992
KEFD 251050Z 00000KT 1/2SM FG VV002 23/23 A2990
KEFD 250950Z 00000KT 1/2SM FG VV002 24/23 A2990
KEFD 250850Z 00000KT 10SM CLR 23/22 A2990
KEFD 250750Z 00000KT 10SM CLR 23/22 A2991